Time;durP1;ratioP1;P1;durP2;ratioP2;P2;SDS_P1;SDS_P2;PMS_P1;PMS_P2;Temp;Humidity;BMP_temperature;BMP_pressure;BME280_temperature;BME280_humidity;BME280_pressure;Samples;Min_cycle;Max_cycle;Signal;HPM_P1;HPM_P2
2023/12/23 00:02:16;;;;;;;0.37;0.37;;;;;;;3.59;100.00;97604.06;5110642;28;20201;-59
2023/12/23 00:04:43;;;;;;;0.40;0.40;;;;;;;3.66;100.00;97605.22;5110414;28;20197;-59
2023/12/23 00:07:14;;;;;;;0.43;0.43;;;;;;;3.73;100.00;97606.44;5110309;28;20219;-59
2023/12/23 00:09:41;;;;;;;0.57;0.50;;;;;;;3.82;100.00;97605.81;5110198;28;20193;-59
2023/12/23 00:12:08;;;;;;;0.67;0.67;;;;;;;3.90;100.00;97596.88;5110427;28;20193;-59
2023/12/23 00:14:35;;;;;;;0.50;0.50;;;;;;;3.93;100.00;97594.19;5110332;28;20263;-59
2023/12/23 00:17:02;;;;;;;0.60;0.60;;;;;;;4.04;100.00;97591.69;5110345;28;20224;-59
2023/12/23 00:19:29;;;;;;;0.30;0.30;;;;;;;4.05;100.00;97580.66;5110240;28;20212;-59
2023/12/23 00:21:56;;;;;;;0.63;0.60;;;;;;;4.08;100.00;97577.94;5109903;28;20236;-59
2023/12/23 00:24:24;;;;;;;0.30;0.30;;;;;;;4.15;100.00;97581.63;5109751;28;20212;-59
2023/12/23 00:26:51;;;;;;;0.30;0.30;;;;;;;4.21;100.00;97576.13;5110032;28;20227;-59
2023/12/23 00:29:17;;;;;;;1.90;0.30;;;;;;;4.25;100.00;97571.69;5110200;28;20197;-59
2023/12/23 00:31:44;;;;;;;0.50;0.50;;;;;;;4.40;100.00;97569.78;5109836;28;20217;-59
2023/12/23 00:34:11;;;;;;;0.30;0.30;;;;;;;4.49;100.00;97571.66;5109680;28;20198;-59
2023/12/23 00:36:38;;;;;;;0.33;0.33;;;;;;;4.50;100.00;97575.78;5109660;28;20201;-59
2023/12/23 00:39:05;;;;;;;0.60;0.60;;;;;;;4.54;100.00;97570.41;5109601;28;20209;-59
2023/12/23 00:41:33;;;;;;;0.33;0.33;;;;;;;4.51;100.00;97568.09;5109626;28;20262;-59
2023/12/23 00:44:00;;;;;;;0.17;0.17;;;;;;;4.61;100.00;97568.22;5109567;28;20205;-59
2023/12/23 00:46:28;;;;;;;1.10;0.70;;;;;;;4.67;100.00;97574.59;5109470;28;20197;-59
2023/12/23 00:48:54;;;;;;;0.93;0.40;;;;;;;4.56;100.00;97572.00;5108912;28;20225;-59
2023/12/23 00:51:21;;;;;;;0.20;0.20;;;;;;;4.59;100.00;97580.19;5109744;28;20209;-59
2023/12/23 00:53:48;;;;;;;0.60;0.60;;;;;;;4.59;100.00;97595.38;5109676;28;20204;-59
2023/12/23 00:56:19;;;;;;;0.33;0.33;;;;;;;4.59;100.00;97580.19;5109224;28;20720;-59
2023/12/23 00:58:48;;;;;;;0.43;0.20;;;;;;;4.64;100.00;97572.28;5109243;28;20229;-59
2023/12/23 01:01:15;;;;;;;0.40;0.40;;;;;;;4.72;100.00;97572.53;5109240;28;20349;-59
2023/12/23 01:03:43;;;;;;;0.30;0.30;;;;;;;4.75;100.00;97575.63;5109438;28;20208;-58
2023/12/23 01:06:10;;;;;;;0.20;0.20;;;;;;;4.75;100.00;97580.69;5108965;28;20204;-59
2023/12/23 01:08:36;;;;;;;0.47;0.47;;;;;;;4.81;100.00;97579.44;5109118;28;20662;-59
2023/12/23 01:11:03;;;;;;;0.57;0.57;;;;;;;4.78;100.00;97573.81;5109532;28;20201;-59
2023/12/23 01:13:30;;;;;;;0.33;0.33;;;;;;;4.82;100.00;97567.59;5109024;28;20566;-59
2023/12/23 01:15:58;;;;;;;0.37;0.37;;;;;;;4.86;100.00;97549.53;5109361;28;20236;-59
2023/12/23 01:18:25;;;;;;;0.20;0.20;;;;;;;4.92;100.00;97563.47;5109169;28;20200;-59
2023/12/23 01:20:52;;;;;;;0.30;0.30;;;;;;;4.86;100.00;97574.03;5108853;28;20224;-60
2023/12/23 01:23:19;;;;;;;0.33;0.33;;;;;;;4.74;100.00;97553.78;5108779;28;20227;-60
2023/12/23 01:25:45;;;;;;;0.30;0.30;;;;;;;4.70;100.00;97536.38;5108824;28;20678;-60
2023/12/23 01:28:12;;;;;;;0.33;0.33;;;;;;;4.73;100.00;97526.84;5108878;28;20622;-60
2023/12/23 01:30:40;;;;;;;0.40;0.40;;;;;;;4.72;100.00;97532.81;5108755;28;20193;-60
2023/12/23 01:33:08;;;;;;;0.40;0.40;;;;;;;4.67;100.00;97531.53;5109014;28;20201;-60
2023/12/23 01:35:36;;;;;;;0.40;0.40;;;;;;;4.65;100.00;97529.13;5108739;28;20942;-60
2023/12/23 01:38:03;;;;;;;0.20;0.20;;;;;;;4.54;100.00;97526.59;5108720;28;20560;-59
2023/12/23 01:40:30;;;;;;;0.40;0.40;;;;;;;4.63;100.00;97520.84;5108580;28;20264;-60
2023/12/23 01:42:56;;;;;;;0.47;0.40;;;;;;;4.62;100.00;97505.75;5109159;28;20694;-59
2023/12/23 01:45:23;;;;;;;0.20;0.20;;;;;;;4.54;100.00;97511.41;5108718;28;20208;-59
2023/12/23 01:47:54;;;;;;;0.50;0.40;;;;;;;4.60;100.00;97505.09;5108804;28;20205;-59
2023/12/23 01:50:25;;;;;;;0.20;0.20;;;;;;;4.59;100.00;97504.25;5108705;28;20634;-59
2023/12/23 01:52:54;;;;;;;0.33;0.33;;;;;;;4.58;100.00;97497.59;5108663;28;20666;-59
2023/12/23 01:55:21;;;;;;;0.10;0.10;;;;;;;4.63;100.00;97500.59;5108804;28;20204;-59
2023/12/23 01:57:48;;;;;;;0.47;0.43;;;;;;;4.59;100.00;97511.84;5108636;28;20205;-59
2023/12/23 02:00:16;;;;;;;0.50;0.50;;;;;;;4.53;100.00;97502.16;5110531;28;20220;-59
2023/12/23 02:02:42;;;;;;;0.70;0.40;;;;;;;4.52;100.00;97482.84;5112689;28;20221;-59
2023/12/23 02:05:10;;;;;;;0.20;0.20;;;;;;;4.58;100.00;97491.72;5112454;28;20217;-59
2023/12/23 02:07:39;;;;;;;0.20;0.20;;;;;;;4.62;100.00;97493.91;5112418;28;20200;-59
2023/12/23 02:10:07;;;;;;;0.20;0.20;;;;;;;4.60;100.00;97489.91;5112534;28;20254;-59
2023/12/23 02:12:39;;;;;;;0.53;0.40;;;;;;;4.52;100.00;97492.97;5112391;28;20674;-59
2023/12/23 02:15:09;;;;;;;0.33;0.33;;;;;;;4.58;100.00;97482.41;5112731;28;20194;-59
2023/12/23 02:17:36;;;;;;;0.27;0.20;;;;;;;4.56;100.00;97469.03;5112405;28;20197;-59
2023/12/23 02:20:03;;;;;;;0.20;0.20;;;;;;;4.61;100.00;97472.06;5112327;28;20204;-59
2023/12/23 02:22:32;;;;;;;0.20;0.20;;;;;;;4.56;100.00;97463.19;5112398;28;20235;-59
2023/12/23 02:24:58;;;;;;;0.30;0.30;;;;;;;4.48;100.00;97456.16;5112349;28;20189;-60
2023/12/23 02:27:30;;;;;;;0.30;0.30;;;;;;;4.50;100.00;97454.31;5112608;28;20213;-59
2023/12/23 02:29:58;;;;;;;0.40;0.33;;;;;;;4.47;100.00;97462.13;5111786;28;20193;-60
2023/12/23 02:32:26;;;;;;;0.30;0.27;;;;;;;4.58;100.00;97459.63;5111380;28;20198;-59
2023/12/23 02:34:54;;;;;;;0.53;0.30;;;;;;;4.48;100.00;97471.31;5111332;28;20204;-60
2023/12/23 02:37:21;;;;;;;0.33;0.33;;;;;;;4.45;100.00;97472.38;5111835;28;20244;-59
2023/12/23 02:39:49;;;;;;;1.10;0.50;;;;;;;4.52;100.00;97472.72;5112039;28;20724;-60
2023/12/23 02:42:16;;;;;;;0.60;0.60;;;;;;;4.55;100.00;97467.44;5111726;28;20256;-59
2023/12/23 02:44:42;;;;;;;0.43;0.43;;;;;;;4.54;100.00;97481.03;5111479;28;20196;-59
2023/12/23 02:47:09;;;;;;;0.50;0.50;;;;;;;4.54;100.00;97481.03;5111768;28;20221;-59
2023/12/23 02:49:36;;;;;;;0.77;0.47;;;;;;;4.60;100.00;97462.06;5111697;28;20201;-60
2023/12/23 02:52:03;;;;;;;0.20;0.20;;;;;;;4.63;100.00;97455.03;5112067;28;20197;-59
2023/12/23 02:54:29;;;;;;;0.40;0.40;;;;;;;4.48;100.00;97441.78;5111785;27;20193;-59
2023/12/23 02:56:58;;;;;;;0.27;0.27;;;;;;;4.54;100.00;97435.47;5111760;28;20205;-59
2023/12/23 02:59:24;;;;;;;0.27;0.27;;;;;;;4.55;100.00;97449.72;5111924;28;20197;-59
2023/12/23 03:01:53;;;;;;;0.20;0.20;;;;;;;4.63;100.00;97439.84;5111476;28;20240;-59
2023/12/23 03:04:19;;;;;;;1.13;0.30;;;;;;;4.63;100.00;97437.31;5111536;28;20296;-59
2023/12/23 03:06:46;;;;;;;0.40;0.40;;;;;;;4.60;100.00;97434.22;5111277;28;20193;-59
2023/12/23 03:09:13;;;;;;;0.40;0.40;;;;;;;4.70;100.00;97428.34;5111614;28;20483;-59
2023/12/23 03:11:40;;;;;;;0.60;0.60;;;;;;;4.82;100.00;97424.06;5110591;28;20205;-59
2023/12/23 03:14:08;;;;;;;0.70;0.70;;;;;;;4.78;100.00;97442.16;5111601;28;20194;-59
2023/12/23 03:16:35;;;;;;;0.40;0.40;;;;;;;4.66;100.00;97452.28;5111646;28;20590;-59
2023/12/23 03:19:03;;;;;;;0.37;0.37;;;;;;;4.62;100.00;97448.34;5111420;27;20631;-60
2023/12/23 03:21:30;;;;;;;0.93;0.70;;;;;;;4.71;100.00;97467.94;5110980;28;20233;-60
2023/12/23 03:23:57;;;;;;;4.57;0.80;;;;;;;4.76;100.00;97445.59;5111126;28;20201;-59
2023/12/23 03:26:23;;;;;;;2.07;1.07;;;;;;;4.67;99.31;97461.47;5111023;28;20205;-59
2023/12/23 03:28:50;;;;;;;1.40;1.23;;;;;;;4.91;97.21;97447.91;5111311;28;20213;-59
2023/12/23 03:31:18;;;;;;;1.07;0.97;;;;;;;4.88;97.40;97456.53;5110972;28;20221;-59
2023/12/23 03:33:45;;;;;;;0.90;0.70;;;;;;;4.94;97.06;97457.78;5110879;28;20197;-59
2023/12/23 03:36:12;;;;;;;2.43;1.47;;;;;;;4.96;96.92;97448.34;5110869;28;20204;-59
2023/12/23 03:38:39;;;;;;;2.67;1.37;;;;;;;4.98;96.61;97434.66;5110719;28;20200;-59
2023/12/23 03:41:05;;;;;;;1.07;0.93;;;;;;;4.99;96.03;97410.94;5110767;28;20228;-59
2023/12/23 03:43:32;;;;;;;1.17;1.07;;;;;;;4.93;95.38;97419.00;5110826;28;20681;-59
2023/12/23 03:45:59;;;;;;;0.60;0.60;;;;;;;5.09;95.77;97388.25;5110978;28;20208;-59
2023/12/23 03:48:28;;;;;;;0.20;0.20;;;;;;;4.97;94.65;97396.78;5110707;28;20209;-59
2023/12/23 03:50:54;;;;;;;0.57;0.57;;;;;;;4.95;95.17;97408.78;5110870;28;20591;-59
2023/12/23 03:53:21;;;;;;;1.00;0.73;;;;;;;4.84;95.60;97401.97;5109646;28;20201;-59
2023/12/23 03:55:48;;;;;;;0.60;0.53;;;;;;;4.89;95.54;97419.38;5110078;28;20196;-59
2023/12/23 03:58:15;;;;;;;0.60;0.50;;;;;;;5.02;95.43;97399.78;5110674;28;20205;-60
2023/12/23 04:00:41;;;;;;;0.87;0.77;;;;;;;4.83;95.24;97394.50;5110604;28;20224;-59
2023/12/23 04:03:08;;;;;;;1.07;0.80;;;;;;;4.83;96.34;97389.44;5110453;28;20240;-59
2023/12/23 04:05:36;;;;;;;0.60;0.53;;;;;;;4.77;96.38;97408.44;5110213;28;20201;-60
2023/12/23 04:08:04;;;;;;;0.50;0.47;;;;;;;4.82;96.43;97392.88;5110490;28;20615;-59
2023/12/23 04:10:30;;;;;;;0.43;0.33;;;;;;;4.61;97.12;97383.47;5110189;28;20193;-59
2023/12/23 04:12:57;;;;;;;0.53;0.53;;;;;;;4.64;96.76;97374.84;5110264;28;20235;-59
2023/12/23 04:15:24;;;;;;;1.07;0.77;;;;;;;4.60;96.32;97376.81;5110332;28;20201;-59
2023/12/23 04:17:51;;;;;;;1.00;0.50;;;;;;;4.74;96.56;97390.94;5110274;28;20197;-59
2023/12/23 04:20:18;;;;;;;0.40;0.40;;;;;;;4.74;97.39;97391.75;5109951;28;20213;-59
2023/12/23 04:22:48;;;;;;;0.40;0.40;;;;;;;4.82;97.28;97403.00;5109329;28;20229;-60
2023/12/23 04:25:15;;;;;;;1.07;0.97;;;;;;;4.83;97.25;97399.56;5109952;28;20314;-59
2023/12/23 04:27:41;;;;;;;2.47;1.87;;;;;;;4.41;99.37;97434.75;5110044;28;20216;-59
2023/12/23 04:30:09;;;;;;;1.97;1.07;;;;;;;4.28;100.00;97428.06;5109879;28;20695;-59
2023/12/23 04:32:36;;;;;;;1.27;1.07;;;;;;;4.35;100.00;97441.06;5110041;28;20557;-59
2023/12/23 04:35:03;;;;;;;0.77;0.67;;;;;;;4.35;100.00;97441.06;5109837;28;20193;-59
2023/12/23 04:37:30;;;;;;;1.33;0.50;;;;;;;4.50;100.00;97429.00;5109790;28;20197;-59
2023/12/23 04:39:58;;;;;;;2.90;0.97;;;;;;;4.63;100.00;97421.34;5109678;28;20197;-59
2023/12/23 04:42:25;;;;;;;0.50;0.47;;;;;;;4.79;100.00;97398.97;5109714;28;20239;-59
2023/12/23 04:44:52;;;;;;;3.27;1.20;;;;;;;4.69;100.00;97409.00;5109711;28;20678;-59
2023/12/23 04:47:19;;;;;;;1.07;0.90;;;;;;;4.56;100.00;97399.91;5109627;28;20679;-59
2023/12/23 04:49:45;;;;;;;0.60;0.57;;;;;;;4.57;100.00;97417.53;5109668;28;20197;-59
2023/12/23 04:52:12;;;;;;;1.73;1.03;;;;;;;4.55;100.00;97429.47;5109646;28;20201;-59
2023/12/23 04:54:39;;;;;;;0.83;0.60;;;;;;;4.50;100.00;97423.94;5109618;28;20201;-59
2023/12/23 04:57:07;;;;;;;1.17;0.67;;;;;;;4.43;100.00;97408.44;5109693;28;20193;-59
2023/12/23 04:59:34;;;;;;;0.60;0.60;;;;;;;4.26;100.00;97417.25;5109376;28;20212;-59
2023/12/23 05:02:00;;;;;;;1.50;1.23;;;;;;;4.28;100.00;97410.38;5109656;28;20236;-59
2023/12/23 05:04:27;;;;;;;0.93;0.93;;;;;;;4.35;100.00;97414.97;5109311;28;20194;-59
2023/12/23 05:06:54;;;;;;;1.30;1.20;;;;;;;4.50;100.00;97424.75;5109325;28;20201;-59
2023/12/23 05:09:21;;;;;;;1.03;0.77;;;;;;;4.61;100.00;97407.97;5109395;28;20756;-60
2023/12/23 05:11:48;;;;;;;3.23;1.23;;;;;;;4.62;100.00;97410.38;5109288;28;20287;-59
2023/12/23 05:14:16;;;;;;;0.23;0.23;;;;;;;4.41;100.00;97406.91;5109249;28;20205;-59
2023/12/23 05:16:43;;;;;;;0.80;0.80;;;;;;;4.54;100.00;97416.03;5109238;28;20292;-59
2023/12/23 05:19:09;;;;;;;0.70;0.70;;;;;;;4.56;100.00;97420.97;5109183;28;20208;-59
2023/12/23 05:21:36;;;;;;;0.43;0.43;;;;;;;4.65;100.00;97405.06;5109098;28;20600;-59
2023/12/23 05:24:03;;;;;;;1.13;0.90;;;;;;;4.70;100.00;97405.53;5108908;28;20730;-59
2023/12/23 05:26:30;;;;;;;0.70;0.70;;;;;;;4.74;100.00;97409.47;5108987;28;20197;-60
2023/12/23 05:28:57;;;;;;;0.70;0.70;;;;;;;4.70;100.00;97409.81;5109090;28;20204;-59
2023/12/23 05:31:26;;;;;;;1.03;0.70;;;;;;;4.67;100.00;97415.91;5108923;28;20208;-59
2023/12/23 05:33:55;;;;;;;0.60;0.57;;;;;;;4.61;100.00;97421.44;5108720;28;20229;-59
2023/12/23 05:36:22;;;;;;;1.80;1.27;;;;;;;4.65;100.00;97437.97;5108717;28;20282;-59
2023/12/23 05:38:49;;;;;;;1.07;0.77;;;;;;;4.65;100.00;97437.97;5108785;28;20233;-59
2023/12/23 05:41:16;;;;;;;0.60;0.60;;;;;;;4.68;100.00;97447.91;5108884;28;20213;-59
2023/12/23 05:43:42;;;;;;;5.10;2.00;;;;;;;4.52;100.00;97440.63;5108824;28;20204;-59
2023/12/23 05:46:10;;;;;;;2.10;1.40;;;;;;;4.72;100.00;97434.09;5108817;28;20221;-59
2023/12/23 05:48:38;;;;;;;1.53;1.17;;;;;;;4.40;100.00;97469.38;5108948;28;20197;-59
2023/12/23 05:51:08;;;;;;;1.33;1.03;;;;;;;4.47;100.00;97447.75;5109117;28;20228;-59
2023/12/23 05:53:35;;;;;;;1.10;0.70;;;;;;;4.74;100.00;97421.31;5108937;28;20208;-59
2023/12/23 05:56:04;;;;;;;0.73;0.73;;;;;;;4.42;100.00;97461.66;5108797;28;20708;-59
2023/12/23 05:58:31;;;;;;;0.50;0.50;;;;;;;4.52;100.00;97402.66;5108945;28;20232;-59
2023/12/23 06:00:58;;;;;;;1.60;0.70;;;;;;;4.41;100.00;97460.06;5108857;28;20229;-59
2023/12/23 06:03:25;;;;;;;1.20;0.80;;;;;;;4.42;100.00;97431.28;5108566;28;20229;-58
2023/12/23 06:05:53;;;;;;;2.17;1.43;;;;;;;4.50;100.00;97401.16;5108428;28;20419;-59
2023/12/23 06:08:20;;;;;;;1.00;0.83;;;;;;;4.32;100.00;97400.81;5108571;28;20287;-59
2023/12/23 06:10:46;;;;;;;4.33;2.10;;;;;;;4.45;100.00;97375.41;5108475;28;20197;-59
2023/12/23 06:13:13;;;;;;;1.67;1.57;;;;;;;4.47;100.00;97388.75;5108562;28;20590;-58
2023/12/23 06:15:40;;;;;;;1.63;1.53;;;;;;;4.37;100.00;97401.28;5108684;28;20220;-59
2023/12/23 06:18:07;;;;;;;0.80;0.80;;;;;;;4.38;100.00;97400.38;5108510;28;20197;-59
2023/12/23 06:20:34;;;;;;;0.73;0.73;;;;;;;4.46;100.00;97394.75;5108505;28;20265;-58
2023/12/23 06:23:02;;;;;;;0.83;0.67;;;;;;;4.37;100.00;97403.03;5108367;28;20233;-58
2023/12/23 06:25:29;;;;;;;0.50;0.50;;;;;;;4.24;100.00;97403.09;5108276;28;20248;-59
2023/12/23 06:27:56;;;;;;;0.43;0.43;;;;;;;4.16;100.00;97392.72;5108595;28;20201;-59
2023/12/23 06:30:23;;;;;;;1.40;0.57;;;;;;;4.18;100.00;97409.41;5108748;28;20205;-59
2023/12/23 06:32:50;;;;;;;0.83;0.43;;;;;;;4.10;100.00;97416.75;5108522;28;20209;-59
2023/12/23 06:35:17;;;;;;;0.50;0.50;;;;;;;4.18;100.00;97409.41;5108374;28;20709;-59
2023/12/23 06:37:44;;;;;;;1.07;0.97;;;;;;;4.22;100.00;97390.59;5108438;28;20193;-58
2023/12/23 06:40:15;;;;;;;0.50;0.50;;;;;;;4.25;100.00;97385.28;5108236;28;20204;-59
2023/12/23 06:42:42;;;;;;;0.40;0.40;;;;;;;4.18;100.00;97395.97;5108217;28;20233;-59
2023/12/23 06:45:09;;;;;;;0.73;0.73;;;;;;;4.16;100.00;97405.38;5108246;28;20201;-59
2023/12/23 06:47:36;;;;;;;0.53;0.53;;;;;;;4.11;100.00;97407.47;5110825;28;20278;-59
2023/12/23 06:50:03;;;;;;;0.33;0.33;;;;;;;4.18;100.00;97409.41;5111925;28;20201;-59
2023/12/23 06:52:30;;;;;;;0.57;0.33;;;;;;;4.16;100.00;97408.75;5112063;28;20197;-59
2023/12/23 06:54:57;;;;;;;0.53;0.53;;;;;;;4.13;100.00;97396.31;5112114;28;20209;-59
2023/12/23 06:57:25;;;;;;;2.43;0.60;;;;;;;4.06;100.00;97397.66;5112316;28;20205;-59
2023/12/23 06:59:52;;;;;;;1.83;0.83;;;;;;;4.00;100.00;97436.84;5111804;28;20213;-59
2023/12/23 07:02:18;;;;;;;0.77;0.60;;;;;;;3.96;100.00;97427.09;5111722;27;20260;-59
2023/12/23 07:04:46;;;;;;;0.83;0.83;;;;;;;4.02;100.00;97429.97;5111676;28;20197;-58
2023/12/23 07:07:12;;;;;;;0.40;0.40;;;;;;;3.99;100.00;97426.84;5111537;28;20225;-59
2023/12/23 07:09:39;;;;;;;0.90;0.90;;;;;;;3.94;100.00;97436.50;5111465;28;20685;-58
2023/12/23 07:12:08;;;;;;;0.37;0.33;;;;;;;3.93;100.00;97439.94;5111810;28;20197;-59
2023/12/23 07:14:36;;;;;;;0.70;0.57;;;;;;;4.01;100.00;97465.47;5111696;28;20205;-59
2023/12/23 07:17:03;;;;;;;0.57;0.37;;;;;;;4.07;100.00;97477.66;5111499;28;20232;-59
2023/12/23 07:19:30;;;;;;;0.20;0.20;;;;;;;4.19;100.00;97494.50;5111422;28;20201;-58
2023/12/23 07:21:57;;;;;;;0.93;0.83;;;;;;;4.27;100.00;97484.63;5111434;28;20250;-59
2023/12/23 07:24:23;;;;;;;0.20;0.20;;;;;;;4.37;100.00;97484.78;5111154;28;20678;-59
2023/12/23 07:26:50;;;;;;;0.80;0.73;;;;;;;4.45;100.00;97481.69;5111465;28;20209;-59
2023/12/23 07:29:17;;;;;;;0.70;0.70;;;;;;;4.49;100.00;97478.03;5111089;28;20205;-59
2023/12/23 07:31:45;;;;;;;0.60;0.60;;;;;;;4.52;100.00;97483.66;5111308;28;20225;-58
2023/12/23 07:34:12;;;;;;;0.47;0.47;;;;;;;4.66;100.00;97499.56;5111363;28;20205;-59
2023/12/23 07:36:39;;;;;;;0.40;0.40;;;;;;;4.89;100.00;97510.53;5110878;28;20197;-59
2023/12/23 07:39:06;;;;;;;0.80;0.60;;;;;;;5.05;100.00;97510.97;5111092;28;20193;-59
2023/12/23 07:41:33;;;;;;;1.07;0.70;;;;;;;5.18;100.00;97500.75;5111048;28;20714;-59
2023/12/23 07:43:59;;;;;;;1.93;0.70;;;;;;;5.41;100.00;97535.28;5110975;28;20240;-59
2023/12/23 07:46:26;;;;;;;0.73;0.40;;;;;;;5.58;100.00;97559.31;5110748;28;20705;-59
2023/12/23 07:48:54;;;;;;;0.50;0.50;;;;;;;5.71;100.00;97558.41;5110780;28;20228;-59
2023/12/23 07:51:21;;;;;;;0.37;0.37;;;;;;;5.77;100.00;97547.78;5110742;28;20671;-59
2023/12/23 07:53:48;;;;;;;0.47;0.47;;;;;;;5.83;100.00;97567.59;5111219;28;20201;-59
2023/12/23 07:56:15;;;;;;;0.50;0.50;;;;;;;5.93;100.00;97563.44;5110709;28;20200;-59
2023/12/23 07:58:42;;;;;;;1.13;0.57;;;;;;;5.98;100.00;97579.13;5110418;28;20596;-59
2023/12/23 08:01:09;;;;;;;0.40;0.40;;;;;;;6.00;100.00;97573.94;5110691;27;20279;-59
2023/12/23 08:03:36;;;;;;;1.03;0.50;;;;;;;5.97;100.00;97528.50;5110344;28;20225;-59
2023/12/23 08:06:04;;;;;;;2.20;0.70;;;;;;;6.04;100.00;97555.00;5110479;28;20671;-59
2023/12/23 08:08:31;;;;;;;0.37;0.37;;;;;;;6.08;100.00;97564.00;5110299;28;20228;-59
2023/12/23 08:10:58;;;;;;;1.17;0.43;;;;;;;6.04;100.00;97545.66;5110744;28;20197;-59
2023/12/23 08:13:25;;;;;;;1.37;0.57;;;;;;;5.97;100.00;97529.31;5110254;28;20197;-59
2023/12/23 08:15:52;;;;;;;1.03;0.60;;;;;;;6.03;100.00;97563.56;5110276;28;20217;-59
2023/12/23 08:18:19;;;;;;;0.60;0.40;;;;;;;6.00;100.00;97584.88;5110340;28;20225;-58
2023/12/23 08:20:46;;;;;;;0.83;0.60;;;;;;;6.03;100.00;97620.16;5110054;28;20198;-59
2023/12/23 08:23:14;;;;;;;0.50;0.50;;;;;;;6.05;100.00;97623.41;5110107;28;20237;-59
2023/12/23 08:25:41;;;;;;;1.17;1.07;;;;;;;6.04;100.00;97619.22;5109866;28;20201;-59
2023/12/23 08:28:08;;;;;;;0.70;0.27;;;;;;;6.05;100.00;97618.31;5110191;28;20201;-59
2023/12/23 08:30:35;;;;;;;0.37;0.37;;;;;;;6.15;100.00;97675.97;5110230;28;20197;-58
2023/12/23 08:33:02;;;;;;;1.30;0.30;;;;;;;6.12;100.00;97664.31;5110150;28;20205;-58
2023/12/23 08:35:28;;;;;;;0.27;0.27;;;;;;;6.18;100.00;97642.75;5109811;28;20251;-58
2023/12/23 08:37:55;;;;;;;0.47;0.47;;;;;;;6.20;100.00;97626.47;5110006;28;20201;-58
2023/12/23 08:40:23;;;;;;;0.87;0.77;;;;;;;6.24;100.00;97652.41;5109664;28;20205;-59
2023/12/23 08:42:50;;;;;;;1.30;0.83;;;;;;;6.27;100.00;97658.06;5110022;28;20229;-59
2023/12/23 08:45:17;;;;;;;1.47;0.77;;;;;;;6.36;100.00;97666.69;5109929;28;20205;-59
2023/12/23 08:47:44;;;;;;;0.57;0.57;;;;;;;6.39;100.00;97660.56;5109585;28;20270;-60
2023/12/23 08:50:11;;;;;;;0.97;0.73;;;;;;;6.37;100.00;97662.41;5109627;28;20212;-60
2023/12/23 08:52:38;;;;;;;0.40;0.40;;;;;;;6.39;100.00;97681.69;5109484;28;20213;-60
2023/12/23 08:55:05;;;;;;;1.50;0.57;;;;;;;6.46;100.00;97682.84;5109555;28;20736;-60
2023/12/23 08:57:33;;;;;;;1.30;0.73;;;;;;;6.41;100.00;97669.69;5109774;28;20708;-62
2023/12/23 09:00:01;;;;;;;0.20;0.20;;;;;;;6.42;100.00;97675.56;5109504;28;20734;-60
2023/12/23 09:02:28;;;;;;;0.20;0.20;;;;;;;6.48;100.00;97683.50;5109298;28;20705;-57
2023/12/23 09:04:55;;;;;;;0.67;0.50;;;;;;;6.51;100.00;97685.78;5109393;28;20201;-61
2023/12/23 09:07:21;;;;;;;1.20;0.60;;;;;;;6.48;100.00;97683.50;5109422;28;20200;-60
2023/12/23 09:09:48;;;;;;;0.50;0.40;;;;;;;6.48;100.00;97691.13;5108652;28;20201;-60
2023/12/23 09:12:15;;;;;;;0.53;0.53;;;;;;;6.48;100.00;97711.41;5109299;28;20561;-60
2023/12/23 09:14:43;;;;;;;0.90;0.30;;;;;;;6.51;100.00;97695.94;5109151;28;20209;-60
2023/12/23 09:18:10;;;;;;;0.80;0.33;;;;;;;6.53;100.00;97690.75;5085924;27;20551;-60
2023/12/23 09:20:37;;;;;;;0.30;0.30;;;;;;;6.51;100.00;97688.34;5086417;28;20202;-59
2023/12/23 09:23:03;;;;;;;0.30;0.30;;;;;;;6.52;100.00;97695.03;5085987;28;20202;-59
2023/12/23 09:25:30;;;;;;;0.67;0.60;;;;;;;6.46;100.00;97685.38;5085644;28;20615;-60
2023/12/23 09:27:57;;;;;;;0.50;0.27;;;;;;;6.46;100.00;97697.25;5085761;28;20241;-59
2023/12/23 09:30:24;;;;;;;0.37;0.37;;;;;;;6.46;100.00;97703.13;5085647;28;20209;-59
2023/12/23 09:32:51;;;;;;;0.33;0.23;;;;;;;6.45;100.00;97726.91;5085826;28;20197;-59
2023/12/23 09:35:19;;;;;;;0.40;0.40;;;;;;;6.43;100.00;97738.91;5085726;28;20225;-59
2023/12/23 09:37:46;;;;;;;0.30;0.30;;;;;;;6.41;100.00;97724.72;5085543;28;20226;-59
2023/12/23 09:40:14;;;;;;;1.03;0.70;;;;;;;6.40;100.00;97745.94;5085544;28;20671;-59
2023/12/23 09:42:41;;;;;;;0.30;0.30;;;;;;;6.45;100.00;97746.41;5085525;28;20205;-59
2023/12/23 09:45:09;;;;;;;1.70;0.40;;;;;;;6.41;100.00;97771.22;5085486;28;20209;-59
2023/12/23 09:47:35;;;;;;;0.40;0.40;;;;;;;6.33;100.00;97774.34;5085484;28;20238;-59
2023/12/23 09:50:02;;;;;;;15.40;0.50;;;;;;;6.34;100.00;97770.06;5085756;28;20251;-59
2023/12/23 09:52:31;;;;;;;0.20;0.20;;;;;;;6.38;100.00;97746.06;5085454;28;20198;-60
2023/12/23 09:54:59;;;;;;;0.37;0.37;;;;;;;6.38;100.00;97786.69;5085249;28;20225;-59
2023/12/23 09:57:27;;;;;;;0.30;0.30;;;;;;;6.37;100.00;97780.00;5085332;28;20230;-59
2023/12/23 09:59:54;;;;;;;0.40;0.40;;;;;;;6.39;100.00;97757.84;5085491;28;20206;-59
2023/12/23 10:02:21;;;;;;;0.40;0.40;;;;;;;6.33;100.00;97759.09;5085300;28;20198;-59
2023/12/23 10:04:48;;;;;;;0.23;0.23;;;;;;;6.36;100.00;97783.44;5085427;28;20217;-59
2023/12/23 10:07:15;;;;;;;1.13;0.43;;;;;;;6.33;100.00;97794.63;5084799;28;20225;-59
2023/12/23 10:09:43;;;;;;;0.27;0.27;;;;;;;6.34;99.98;97806.44;5085057;28;20326;-60
2023/12/23 10:12:10;;;;;;;0.43;0.43;;;;;;;6.38;99.88;97801.13;5085196;28;20618;-59
2023/12/23 10:14:41;;;;;;;0.33;0.30;;;;;;;6.33;100.00;97809.06;5084899;28;20198;-59
2023/12/23 10:17:08;;;;;;;1.07;0.43;;;;;;;6.30;100.00;97814.38;5084903;28;20733;-59
2023/12/23 10:19:34;;;;;;;0.40;0.40;;;;;;;6.26;100.00;97818.88;5084770;28;20693;-60
2023/12/23 10:22:02;;;;;;;0.90;0.70;;;;;;;6.21;100.00;97840.44;5085333;28;20210;-60
2023/12/23 10:24:28;;;;;;;0.40;0.37;;;;;;;6.14;100.00;97845.19;5084978;28;20624;-59
2023/12/23 10:26:58;;;;;;;0.80;0.60;;;;;;;6.15;100.00;97846.00;5084628;28;20229;-59
2023/12/23 10:29:27;;;;;;;0.47;0.47;;;;;;;6.13;100.00;97835.94;5071272;28;20230;-59
2023/12/23 10:31:56;;;;;;;0.30;0.30;;;;;;;6.18;100.00;97833.06;5071261;28;20202;-59
2023/12/23 10:34:29;;;;;;;0.30;0.30;;;;;;;6.21;99.88;97830.31;5071170;28;20203;-59
2023/12/23 10:36:59;;;;;;;0.60;0.50;;;;;;;6.20;99.11;97823.63;5070074;28;20203;-59
2023/12/23 10:39:29;;;;;;;0.30;0.30;;;;;;;6.23;99.27;97803.09;5071146;28;20226;-59
2023/12/23 10:42:04;;;;;;;0.60;0.47;;;;;;;6.27;98.48;97796.84;5071020;28;20206;-59
2023/12/23 10:44:32;;;;;;;15.37;0.57;;;;;;;6.31;97.55;97790.59;5070875;28;20198;-59
2023/12/23 10:46:59;;;;;;;0.20;0.20;;;;;;;6.28;97.32;97795.91;5070859;28;20245;-59
2023/12/23 10:49:27;;;;;;;0.20;0.20;;;;;;;6.61;96.68;97779.84;5070108;28;20202;-60
2023/12/23 10:51:55;;;;;;;0.30;0.30;;;;;;;6.89;93.19;97770.88;5070446;28;20605;-59
2023/12/23 10:54:24;;;;;;;1.20;0.33;;;;;;;7.16;91.83;97782.38;5070927;28;20272;-59
2023/12/23 10:56:53;;;;;;;0.10;0.10;;;;;;;7.25;91.26;97791.81;5070903;28;20258;-59
2023/12/23 10:59:21;;;;;;;0.57;0.50;;;;;;;7.25;90.64;97782.44;5070928;28;20221;-60
2023/12/23 11:01:48;;;;;;;0.93;0.40;;;;;;;7.29;89.84;97783.00;5070654;28;20221;-59
2023/12/23 11:04:15;;;;;;;0.60;0.50;;;;;;;7.50;90.11;97790.63;5070483;28;20209;-60
2023/12/23 11:06:46;;;;;;;1.33;0.43;;;;;;;7.67;87.31;97781.66;5070129;28;20242;-60
2023/12/23 11:09:15;;;;;;;0.37;0.37;;;;;;;7.63;85.80;97796.38;5069760;28;20570;-60
2023/12/23 11:11:43;;;;;;;0.20;0.20;;;;;;;7.62;83.65;97783.75;5070534;28;20251;-61
2023/12/23 11:14:10;;;;;;;1.63;0.53;;;;;;;7.61;80.92;97787.25;5070298;28;20225;-61
2023/12/23 11:16:40;;;;;;;0.87;0.57;;;;;;;7.67;82.66;97824.91;5066493;28;20221;-61
2023/12/23 11:19:07;;;;;;;0.30;0.30;;;;;;;7.71;80.35;97813.56;5069544;28;20202;-61
2023/12/23 11:21:35;;;;;;;0.77;0.40;;;;;;;7.48;78.38;97820.50;5066343;28;20198;-61
2023/12/23 11:24:02;;;;;;;0.93;0.50;;;;;;;7.19;78.69;97815.16;5059944;28;20195;-61
2023/12/23 11:26:42;;;;;;;0.87;0.43;;;;;;;6.97;78.87;97824.47;5058801;28;20194;-61
2023/12/23 11:29:12;;;;;;;0.43;0.30;;;;;;;6.79;78.84;97847.00;5055607;28;20203;-61
2023/12/23 11:31:41;;;;;;;0.27;0.27;;;;;;;6.86;78.32;97836.38;5050235;28;20210;-61
2023/12/23 11:34:15;;;;;;;0.20;0.20;;;;;;;6.85;75.64;97847.47;5049835;28;20206;-61
2023/12/23 11:36:43;;;;;;;0.10;0.10;;;;;;;6.77;76.34;97807.41;5049945;28;20285;-61